Time;durP1;ratioP1;P1;durP2;ratioP2;P2;SDS_P1;SDS_P2;PMS_P1;PMS_P2;Temp;Humidity;BMP_temperature;BMP_pressure;BME280_temperature;BME280_humidity;BME280_pressure;Samples;Min_cycle;Max_cycle;Signal;HPM_P1;HPM_P2
2022/10/31 00:00:24;;;;;;;0.87;0.87;;;11.30;89.90;10.60;96464.00;;;;5093709;28;20208;-52
2022/10/31 00:02:53;;;;;;;1.13;1.13;;;11.30;90.10;10.60;96467.00;;;;5093643;28;20210;-52
2022/10/31 00:05:22;;;;;;;1.43;1.33;;;11.40;90.70;10.70;96478.00;;;;5093491;28;20202;-53
2022/10/31 00:07:52;;;;;;;1.50;1.40;;;11.40;91.00;10.70;96477.00;;;;5093560;28;20206;-52
2022/10/31 00:10:19;;;;;;;2.30;1.47;;;11.30;91.30;10.60;96473.00;;;;5093448;28;20238;-52
2022/10/31 00:12:45;;;;;;;1.10;1.03;;;11.40;92.10;10.60;96471.00;;;;5093391;28;20522;-53
2022/10/31 00:15:11;;;;;;;0.70;0.70;;;11.40;92.10;10.60;96469.00;;;;5093339;28;20236;-53
2022/10/31 00:17:40;;;;;;;1.23;1.23;;;11.40;91.60;10.50;96468.00;;;;5093396;28;20211;-52
2022/10/31 00:20:08;;;;;;;1.23;1.23;;;11.30;90.70;10.60;96477.00;;;;5093267;28;20631;-53
2022/10/31 00:22:35;;;;;;;2.43;1.30;;;11.20;90.40;10.50;96472.00;;;;5093344;28;20211;-52
2022/10/31 00:25:04;;;;;;;1.70;1.60;;;11.30;90.10;10.50;96472.00;;;;5075437;28;20210;-52
2022/10/31 00:27:31;;;;;;;1.90;1.43;;;11.20;89.70;10.40;96478.00;;;;5093461;28;20203;-52
2022/10/31 00:29:57;;;;;;;1.30;1.30;;;11.10;90.70;10.40;96479.00;;;;5075308;28;20523;-52
2022/10/31 00:32:24;;;;;;;1.43;1.33;;;11.10;90.00;10.30;96476.00;;;;5093084;28;20222;-52
2022/10/31 00:34:50;;;;;;;3.33;1.00;;;11.10;89.50;10.30;96476.00;;;;5093266;28;20203;-51
2022/10/31 00:37:16;;;;;;;0.90;0.90;;;11.00;89.70;10.30;96483.00;;;;5092974;28;20550;-52
2022/10/31 00:39:48;;;;;;;1.53;0.93;;;11.00;89.80;10.40;96472.00;;;;5093100;28;20194;-52
2022/10/31 00:42:15;;;;;;;2.20;1.33;;;11.10;90.30;10.30;96476.00;;;;5092982;28;20223;-52
2022/10/31 00:44:41;;;;;;;1.30;1.23;;;11.00;90.00;10.30;96474.00;;;;5096012;28;20515;-53
2022/10/31 00:47:08;;;;;;;1.47;1.37;;;11.00;90.40;10.30;96465.00;;;;5096584;28;20199;-51
2022/10/31 00:49:34;;;;;;;0.87;0.87;;;11.00;90.10;10.20;96469.00;;;;5096446;28;20226;-54
2022/10/31 00:52:01;;;;;;;0.83;0.83;;;11.00;90.00;10.30;96470.00;;;;5096068;28;20567;-52
2022/10/31 00:54:27;;;;;;;1.00;1.00;;;11.00;90.20;10.30;96467.00;;;;5096415;28;20229;-55
2022/10/31 00:56:54;;;;;;;1.33;1.23;;;11.00;90.60;10.30;96454.00;;;;5096461;28;20194;-53
2022/10/31 00:59:20;;;;;;;0.80;0.80;;;11.10;90.60;10.30;96462.00;;;;5096366;28;20289;-54
2022/10/31 01:01:47;;;;;;;1.47;1.37;;;11.00;90.50;10.30;96464.00;;;;5078605;28;20259;-54
2022/10/31 01:04:16;;;;;;;1.23;1.23;;;11.00;90.60;10.20;96465.00;;;;5096379;28;20250;-52
2022/10/31 01:06:42;;;;;;;1.20;1.10;;;10.90;90.70;10.10;96464.00;;;;5096332;28;20203;-54
2022/10/31 01:09:08;;;;;;;1.80;1.70;;;10.90;90.80;10.10;96464.00;;;;5096275;28;20206;-53
2022/10/31 01:11:35;;;;;;;1.93;1.83;;;10.90;91.20;10.10;96470.00;;;;5078364;28;20287;-53
2022/10/31 01:14:04;;;;;;;1.43;1.33;;;10.80;91.30;10.10;96465.00;;;;5096176;28;20194;-52
2022/10/31 01:16:31;;;;;;;1.27;1.23;;;10.80;91.20;10.20;96453.00;;;;5096036;28;20223;-52
2022/10/31 01:18:57;;;;;;;1.10;1.10;;;10.80;91.00;10.20;96459.00;;;;5096056;28;20234;-52
2022/10/31 01:21:26;;;;;;;1.63;1.53;;;10.90;90.90;10.10;96467.00;;;;5096071;28;20190;-52
2022/10/31 01:23:55;;;;;;;0.63;0.63;;;10.90;90.70;10.00;96450.00;;;;5095875;28;20215;-52
2022/10/31 01:26:24;;;;;;;1.73;1.63;;;10.80;90.20;10.00;96461.00;;;;5096110;28;20578;-52
2022/10/31 01:28:53;;;;;;;10.90;2.37;;;10.80;90.50;9.90;96444.00;;;;5096079;28;20233;-52
2022/10/31 01:31:23;;;;;;;1.70;1.60;;;10.70;90.60;9.90;96458.00;;;;5096015;28;20195;-52
2022/10/31 01:33:49;;;;;;;1.00;1.00;;;10.60;90.80;9.90;96451.00;;;;5095809;28;20545;-52
2022/10/31 01:36:22;;;;;;;1.27;1.27;;;10.60;90.60;9.90;96453.00;;;;5077900;28;20222;-52
2022/10/31 01:38:50;;;;;;;2.00;1.80;;;10.70;90.50;9.90;96455.00;;;;5094839;28;20234;-53
2022/10/31 01:41:21;;;;;;;1.70;1.13;;;10.60;90.90;9.90;96449.00;;;;5095788;28;20226;-53
2022/10/31 01:43:53;;;;;;;1.10;1.10;;;10.60;91.10;9.80;96452.00;;;;5095842;28;20206;-53
2022/10/31 01:46:25;;;;;;;1.93;1.83;;;10.60;91.00;9.70;96450.00;;;;5095969;28;20211;-54
2022/10/31 01:48:54;;;;;;;2.20;1.23;;;10.50;90.50;9.80;96456.00;;;;5095872;28;20645;-52
2022/10/31 01:51:25;;;;;;;2.03;1.93;;;10.50;91.00;9.80;96453.00;;;;5095737;28;20275;-53
2022/10/31 01:53:59;;;;;;;0.87;0.87;;;10.50;92.60;9.80;96453.00;;;;5095725;28;20264;-52
2022/10/31 01:56:27;;;;;;;0.97;0.97;;;10.50;92.30;9.90;96454.00;;;;5094592;28;20234;-52
2022/10/31 01:58:59;;;;;;;1.20;1.20;;;10.60;92.60;9.90;96428.00;;;;5095445;28;20252;-53
2022/10/31 02:01:29;;;;;;;0.90;0.90;;;10.60;92.40;9.80;96453.00;;;;5095466;28;20275;-52
2022/10/31 02:03:56;;;;;;;3.00;1.13;;;10.50;91.20;9.40;96419.00;;;;5095258;28;20215;-52
2022/10/31 02:06:35;;;;;;;0.80;0.80;;;10.30;90.00;9.50;96448.00;;;;5095564;28;20203;-52
2022/10/31 02:09:05;;;;;;;0.80;0.80;;;10.30;91.10;9.40;96453.00;;;;5095506;28;20199;-52
2022/10/31 02:11:36;;;;;;;0.93;0.93;;;10.20;91.70;9.30;96456.00;;;;5095965;28;20484;-53
2022/10/31 02:14:04;;;;;;;0.70;0.70;;;10.10;92.00;9.40;96457.00;;;;5095503;28;20217;-54
2022/10/31 02:16:31;;;;;;;1.13;1.13;;;10.10;92.20;9.40;96451.00;;;;5095178;28;20202;-51
2022/10/31 02:18:59;;;;;;;1.20;1.07;;;10.20;91.90;9.30;96458.00;;;;5094044;28;20705;-52
2022/10/31 02:21:45;;;;;;;3.50;1.80;;;10.10;91.20;9.30;96462.00;;;;5095161;28;20546;-52
2022/10/31 02:24:43;;;;;;;1.83;1.73;;;10.10;91.60;9.30;96461.00;;;;5094916;28;20234;-52
2022/10/31 02:27:40;;;;;;;6.60;2.00;;;10.10;91.50;9.30;96462.00;;;;5095081;28;20206;-52
2022/10/31 02:30:16;;;;;;;2.17;1.97;;;10.10;91.80;9.30;96457.00;;;;5094928;28;20227;-51
2022/10/31 02:33:07;;;;;;;1.10;1.10;;;10.00;91.50;9.40;96449.00;;;;5094982;28;20268;-52
2022/10/31 02:35:50;;;;;;;1.00;1.00;;;10.10;91.80;9.30;96450.00;;;;5094855;28;20214;-52
2022/10/31 02:38:34;;;;;;;1.17;1.17;;;10.10;91.20;9.30;96453.00;;;;5095083;28;20271;-53
2022/10/31 02:41:15;;;;;;;1.10;0.90;;;10.00;91.70;9.30;96461.00;;;;5093875;28;20231;-53
2022/10/31 02:43:55;;;;;;;0.97;0.97;;;10.00;92.00;9.50;96446.00;;;;5076957;28;20654;-60
2022/10/31 02:46:32;;;;;;;0.87;0.87;;;10.10;92.20;9.50;96447.00;;;;5094765;28;20222;-55
2022/10/31 02:49:10;;;;;;;1.57;1.47;;;10.20;91.80;9.40;96448.00;;;;5094730;28;20222;-53
2022/10/31 02:51:39;;;;;;;1.10;1.10;;;10.20;91.70;9.40;96422.00;;;;5094741;28;20237;-52
2022/10/31 02:54:05;;;;;;;0.97;0.97;;;10.20;91.80;9.40;96442.00;;;;5094625;28;20191;-57
2022/10/31 02:56:32;;;;;;;2.40;1.37;;;10.20;91.90;9.40;96438.00;;;;5094694;28;20520;-51
2022/10/31 02:59:03;;;;;;;1.47;1.40;;;10.20;91.80;9.40;96437.00;;;;5094806;28;20206;-52
2022/10/31 03:02:05;;;;;;;1.10;1.10;;;10.20;91.80;9.40;96443.00;;;;5094666;28;20195;-52
2022/10/31 03:04:56;;;;;;;1.77;1.67;;;10.20;92.20;9.40;96442.00;;;;5094583;28;20366;-52
2022/10/31 03:07:39;;;;;;;2.33;2.13;;;10.20;92.40;9.40;96435.00;;;;5094229;28;20281;-52
2022/10/31 03:10:17;;;;;;;0.80;0.80;;;10.10;92.30;9.40;96435.00;;;;5094330;28;20237;-55
2022/10/31 03:12:58;;;;;;;0.70;0.70;;;10.10;91.80;9.40;96434.00;;;;5094374;28;20217;-54
2022/10/31 03:15:32;;;;;;;2.13;1.87;;;10.10;91.20;9.30;96433.00;;;;5094307;28;20375;-51
2022/10/31 03:18:06;;;;;;;1.30;1.20;;;10.10;91.30;9.30;96437.00;;;;5093376;28;20205;-51
2022/10/31 03:20:39;;;;;;;1.90;1.13;;;10.00;90.90;9.30;96439.00;;;;5094150;28;20226;-53
2022/10/31 03:23:12;;;;;;;1.10;1.10;;;10.10;91.00;9.00;96433.00;;;;5094157;28;20540;-51
2022/10/31 03:25:40;;;;;;;1.40;1.30;;;9.90;90.30;9.10;96445.00;;;;5094350;28;20223;-55
2022/10/31 03:28:11;;;;;;;1.00;1.00;;;9.80;90.70;9.10;96435.00;;;;5094171;28;20190;-52
2022/10/31 03:30:42;;;;;;;1.67;1.57;;;9.80;90.80;9.20;96428.00;;;;5076305;28;20225;-54
2022/10/31 03:33:16;;;;;;;1.00;1.00;;;9.90;91.20;9.20;96438.00;;;;5094315;28;20267;-53
2022/10/31 03:35:49;;;;;;;0.80;0.80;;;9.90;91.00;9.20;96437.00;;;;5094341;28;20202;-53
2022/10/31 03:38:16;;;;;;;0.83;0.83;;;9.90;91.00;9.10;96429.00;;;;5094248;28;20728;-53
2022/10/31 03:40:47;;;;;;;0.80;0.80;;;9.90;91.10;9.20;96449.00;;;;5094055;28;20285;-53
2022/10/31 03:43:20;;;;;;;2.00;1.17;;;9.90;91.20;9.20;96412.00;;;;5093134;28;20225;-52
2022/10/31 03:45:47;;;;;;;2.27;1.33;;;9.90;91.10;9.30;96438.00;;;;5093892;28;20203;-52
2022/10/31 03:48:18;;;;;;;1.93;1.73;;;10.00;91.10;9.20;96432.00;;;;5092936;28;20230;-53
2022/10/31 03:50:56;;;;;;;2.43;2.23;;;10.00;90.90;9.20;96434.00;;;;5093971;28;20281;-52
2022/10/31 03:53:31;;;;;;;0.87;0.87;;;9.80;91.10;9.20;96423.00;;;;5093730;28;20226;-53
2022/10/31 03:56:05;;;;;;;1.77;1.67;;;9.90;91.30;9.20;96426.00;;;;5093846;28;20198;-52
2022/10/31 03:58:39;;;;;;;2.13;1.67;;;10.00;91.30;9.20;96407.00;;;;5093674;28;20230;-53
2022/10/31 04:01:11;;;;;;;0.93;0.93;;;9.90;91.30;9.00;96431.00;;;;5093625;28;20187;-51
2022/10/31 04:03:39;;;;;;;0.73;0.73;;;9.90;90.80;8.90;96424.00;;;;5093790;28;20372;-51
2022/10/31 04:06:10;;;;;;;1.67;1.57;;;9.70;90.30;9.00;96426.00;;;;5093697;28;20215;-56
2022/10/31 04:08:43;;;;;;;0.60;0.60;;;9.70;90.90;9.00;96408.00;;;;5093592;28;20258;-52
2022/10/31 04:11:13;;;;;;;1.23;1.23;;;9.70;91.20;9.00;96415.00;;;;5093439;28;20225;-51
2022/10/31 04:13:44;;;;;;;0.80;0.80;;;9.70;90.80;9.10;96420.00;;;;5093464;28;20273;-53
2022/10/31 04:16:13;;;;;;;0.70;0.70;;;9.80;91.80;9.00;96421.00;;;;5093378;28;20366;-51
2022/10/31 04:18:42;;;;;;;1.63;1.10;;;9.70;90.80;9.00;96411.00;;;;5094855;28;20198;-51
2022/10/31 04:21:11;;;;;;;3.37;1.33;;;9.70;90.60;9.00;96413.00;;;;5079041;28;20654;-51
2022/10/31 04:23:37;;;;;;;0.80;0.80;;;9.70;90.40;9.10;96410.00;;;;5096873;28;20221;-52
2022/10/31 04:26:04;;;;;;;1.93;1.73;;;9.80;90.40;9.00;96378.00;;;;5096991;28;20202;-56
2022/10/31 04:28:32;;;;;;;1.33;1.23;;;9.80;90.10;9.00;96419.00;;;;5096991;28;20202;-57
2022/10/31 04:30:59;;;;;;;2.13;1.87;;;9.70;90.00;8.90;96408.00;;;;5096918;28;20202;-54
2022/10/31 04:33:25;;;;;;;1.10;1.10;;;9.60;89.60;9.00;96415.00;;;;5095931;28;20222;-52
2022/10/31 04:35:51;;;;;;;0.90;0.90;;;9.70;90.10;9.00;96411.00;;;;5096847;28;20194;-52
2022/10/31 04:38:18;;;;;;;2.13;2.00;;;9.70;90.10;8.90;96408.00;;;;5096753;28;20305;-53
2022/10/31 04:40:46;;;;;;;1.57;1.47;;;9.70;90.30;9.00;96391.00;;;;5096818;28;20217;-53
2022/10/31 04:43:12;;;;;;;2.03;1.67;;;9.70;90.70;9.00;96401.00;;;;5096575;28;20226;-53
2022/10/31 04:45:39;;;;;;;1.30;1.20;;;9.70;90.70;8.90;96404.00;;;;5096736;28;20203;-52
2022/10/31 04:48:05;;;;;;;1.57;1.47;;;9.70;90.10;8.80;96399.00;;;;5096581;28;20203;-54
2022/10/31 04:50:31;;;;;;;2.27;1.60;;;9.60;89.80;8.70;96385.00;;;;5096506;28;20690;-53
2022/10/31 04:53:00;;;;;;;1.20;1.20;;;9.50;89.50;8.60;96385.00;;;;5096549;28;20199;-53
2022/10/31 04:55:30;;;;;;;0.80;0.80;;;9.50;89.60;8.70;96390.00;;;;5096404;28;20271;-53
2022/10/31 04:57:57;;;;;;;1.77;1.67;;;9.50;89.80;8.80;96391.00;;;;5096430;28;20213;-53
2022/10/31 05:00:24;;;;;;;1.07;1.07;;;9.50;90.20;8.80;96388.00;;;;5096287;28;20226;-53
2022/10/31 05:02:53;;;;;;;0.87;0.87;;;9.50;90.70;8.80;96388.00;;;;5096372;28;20244;-53
2022/10/31 05:05:22;;;;;;;0.77;0.77;;;9.50;90.70;8.70;96388.00;;;;5096395;28;20246;-52
2022/10/31 05:07:51;;;;;;;1.20;1.20;;;9.40;90.60;8.60;96392.00;;;;5096275;28;20229;-52
2022/10/31 05:10:21;;;;;;;1.07;1.03;;;9.40;90.60;8.60;96389.00;;;;5096264;28;20267;-53
2022/10/31 05:12:50;;;;;;;1.57;1.47;;;9.30;90.50;8.60;96357.00;;;;5096220;28;20205;-53
2022/10/31 05:15:18;;;;;;;0.70;0.70;;;9.40;91.00;8.60;96373.00;;;;5096104;28;20199;-53
2022/10/31 05:17:45;;;;;;;0.97;0.97;;;9.40;90.90;8.60;96347.00;;;;5096410;28;20661;-53
2022/10/31 05:20:13;;;;;;;0.93;0.93;;;9.40;90.60;8.50;96379.00;;;;5096261;28;20241;-50
2022/10/31 05:22:43;;;;;;;0.87;0.87;;;9.30;90.70;8.50;96382.00;;;;5096048;28;20230;-52
2022/10/31 05:25:10;;;;;;;1.13;1.13;;;9.30;90.30;8.50;96386.00;;;;5096326;28;20201;-51
2022/10/31 05:27:40;;;;;;;1.17;1.17;;;9.20;90.40;8.50;96384.00;;;;5096170;28;20226;-53
2022/10/31 05:30:09;;;;;;;0.90;0.90;;;9.30;90.50;8.60;96386.00;;;;5096005;28;20627;-53
2022/10/31 05:32:39;;;;;;;3.60;1.43;;;9.30;90.30;8.50;96377.00;;;;5095917;28;20247;-53
2022/10/31 05:35:08;;;;;;;0.90;0.90;;;9.30;90.10;8.50;96374.00;;;;5095792;28;20656;-53
2022/10/31 05:37:35;;;;;;;0.77;0.77;;;9.30;90.00;8.50;96375.00;;;;5095807;28;20191;-57
2022/10/31 05:40:01;;;;;;;0.60;0.60;;;9.20;90.00;8.40;96378.00;;;;5095706;28;20222;-53
2022/10/31 05:42:28;;;;;;;1.80;0.90;;;9.20;90.60;8.60;96355.00;;;;5078116;28;20502;-53
2022/10/31 05:44:54;;;;;;;0.97;0.97;;;9.40;91.40;8.70;96368.00;;;;5095639;28;20222;-51
2022/10/31 05:47:21;;;;;;;1.27;1.27;;;9.40;91.90;8.80;96353.00;;;;5095630;28;20209;-51
2022/10/31 05:49:48;;;;;;;1.10;1.10;;;9.50;92.50;9.00;96376.00;;;;5095632;28;20213;-51
2022/10/31 05:52:15;;;;;;;1.00;1.00;;;9.70;92.90;9.00;96378.00;;;;5095600;28;20247;-51
2022/10/31 05:54:41;;;;;;;2.40;1.93;;;9.70;92.20;9.00;96370.00;;;;5095579;28;20201;-53
2022/10/31 05:57:07;;;;;;;1.00;1.00;;;9.80;91.70;8.90;96370.00;;;;5094448;28;20676;-51
2022/10/31 05:59:34;;;;;;;0.90;0.90;;;9.70;90.20;8.80;96375.00;;;;5095524;28;20259;-53
2022/10/31 06:02:01;;;;;;;1.20;1.20;;;9.60;88.90;8.80;96372.00;;;;5094277;28;20647;-51
2022/10/31 06:04:28;;;;;;;0.97;0.97;;;9.50;89.40;8.80;96370.00;;;;5095417;28;20273;-53
2022/10/31 06:06:54;;;;;;;0.90;0.90;;;9.60;89.50;8.80;96373.00;;;;5095395;28;20206;-53
2022/10/31 06:09:21;;;;;;;0.87;0.87;;;9.70;89.80;8.80;96369.00;;;;5095464;28;20221;-58
2022/10/31 06:11:47;;;;;;;1.03;1.03;;;9.60;88.90;8.80;96360.00;;;;5095369;28;20195;-53
2022/10/31 06:14:13;;;;;;;0.60;0.60;;;9.50;88.60;8.80;96373.00;;;;5095286;28;20806;-51
2022/10/31 06:16:40;;;;;;;1.83;1.73;;;9.60;88.80;8.60;96370.00;;;;5095144;28;20207;-51
2022/10/31 06:19:06;;;;;;;1.23;1.23;;;9.40;88.50;8.70;96366.00;;;;5094301;28;20258;-52
2022/10/31 06:21:33;;;;;;;0.90;0.90;;;9.40;88.70;8.70;96362.00;;;;5095169;28;20339;-53
2022/10/31 06:24:03;;;;;;;3.10;1.57;;;9.40;88.50;8.60;96363.00;;;;5094797;28;20616;-52
2022/10/31 06:26:29;;;;;;;1.40;1.30;;;9.40;88.30;8.50;96362.00;;;;5095105;28;20205;-51
2022/10/31 06:28:55;;;;;;;0.97;0.97;;;9.30;88.10;8.50;96353.00;;;;5094948;28;20205;-54
2022/10/31 06:31:24;;;;;;;1.00;1.00;;;9.30;89.10;8.60;96355.00;;;;5095051;28;20195;-52
2022/10/31 06:33:51;;;;;;;0.77;0.77;;;9.30;89.40;8.70;96356.00;;;;5094922;28;20199;-53
2022/10/31 06:36:20;;;;;;;0.60;0.60;;;9.30;89.10;8.60;96329.00;;;;5094925;28;20318;-51
2022/10/31 06:38:47;;;;;;;2.30;1.10;;;9.30;88.90;8.60;96353.00;;;;5094814;28;20191;-52
2022/10/31 06:41:13;;;;;;;2.43;2.30;;;9.40;89.10;8.80;96347.00;;;;5094096;28;20218;-54
2022/10/31 06:43:39;;;;;;;2.17;2.03;;;9.40;89.20;8.90;96351.00;;;;5094706;28;20223;-55
2022/10/31 06:46:06;;;;;;;1.00;1.00;;;9.50;88.70;8.90;96355.00;;;;5093802;28;20202;-54
2022/10/31 06:48:33;;;;;;;1.07;1.07;;;9.60;88.50;8.90;96332.00;;;;5077103;28;20203;-53
2022/10/31 06:50:59;;;;;;;0.93;0.93;;;9.60;87.90;8.90;96357.00;;;;5094672;28;20206;-52
2022/10/31 06:53:26;;;;;;;0.50;0.50;;;9.60;88.20;8.80;96364.00;;;;5094751;28;20268;-53
2022/10/31 06:55:53;;;;;;;1.10;1.10;;;9.50;89.00;9.00;96362.00;;;;5094778;28;20266;-53
2022/10/31 06:58:19;;;;;;;0.77;0.77;;;9.60;89.70;8.90;96363.00;;;;5094543;28;20309;-54
2022/10/31 07:00:48;;;;;;;0.90;0.90;;;9.60;89.20;8.90;96366.00;;;;5094528;28;20297;-53
2022/10/31 07:03:17;;;;;;;1.00;1.00;;;9.60;89.30;8.90;96359.00;;;;5094242;28;20690;-54
2022/10/31 07:05:46;;;;;;;5.20;2.03;;;9.70;89.20;9.00;96368.00;;;;5094552;28;20266;-53
2022/10/31 07:08:15;;;;;;;1.80;1.37;;;9.70;88.60;8.90;96369.00;;;;5094305;28;20520;-53
2022/10/31 07:10:43;;;;;;;0.80;0.80;;;9.70;88.20;9.00;96367.00;;;;5094401;28;20639;-53
2022/10/31 07:13:14;;;;;;;1.33;1.23;;;9.70;87.90;9.00;96365.00;;;;5094315;28;20215;-53
2022/10/31 07:15:43;;;;;;;0.90;0.90;;;9.60;87.20;8.90;96368.00;;;;5094272;28;20218;-54
2022/10/31 07:18:12;;;;;;;1.33;1.33;;;9.60;87.50;9.00;96364.00;;;;5094339;28;20730;-53
2022/10/31 07:20:38;;;;;;;2.57;1.33;;;9.70;87.50;8.90;96362.00;;;;5094093;28;20736;-53
2022/10/31 07:23:05;;;;;;;1.03;1.03;;;9.60;87.50;9.00;96373.00;;;;5094140;28;20264;-54
2022/10/31 07:25:34;;;;;;;2.23;1.17;;;9.60;87.90;9.10;96361.00;;;;5094038;28;20534;-53
2022/10/31 07:28:00;;;;;;;0.70;0.70;;;9.70;88.00;9.20;96367.00;;;;5076373;28;20240;-54
2022/10/31 07:30:27;;;;;;;2.20;2.07;;;9.80;87.50;9.30;96365.00;;;;5076277;28;20199;-52
2022/10/31 07:32:55;;;;;;;1.70;1.60;;;9.90;87.60;9.30;96367.00;;;;5076233;28;20599;-53
2022/10/31 07:35:24;;;;;;;0.93;0.93;;;9.80;87.50;9.30;96372.00;;;;5093986;28;20202;-55
2022/10/31 07:37:51;;;;;;;1.33;1.33;;;9.90;87.20;9.20;96368.00;;;;5093970;28;20277;-52
2022/10/31 07:40:19;;;;;;;1.53;1.47;;;10.00;87.50;9.30;96376.00;;;;5094195;28;20282;-54
2022/10/31 07:42:48;;;;;;;1.10;1.10;;;10.00;87.60;9.40;96370.00;;;;5094010;28;20267;-59
2022/10/31 07:45:17;;;;;;;1.13;1.13;;;10.00;88.00;9.30;96370.00;;;;5093969;28;20597;-54
2022/10/31 07:47:46;;;;;;;0.90;0.90;;;10.00;88.40;9.50;96372.00;;;;5093807;28;20297;-55
2022/10/31 07:50:16;;;;;;;0.90;0.90;;;10.00;88.60;9.50;96375.00;;;;5093815;28;20195;-55
2022/10/31 07:52:42;;;;;;;0.80;0.80;;;10.10;88.90;9.60;96371.00;;;;5091690;28;20351;-53
2022/10/31 07:55:10;;;;;;;0.90;0.90;;;10.20;88.90;9.60;96376.00;;;;5094529;28;20248;-53
2022/10/31 07:57:37;;;;;;;1.00;1.00;;;10.30;88.80;9.80;96377.00;;;;5093546;28;20229;-53
2022/10/31 08:00:04;;;;;;;0.93;0.93;;;10.40;88.80;9.80;96366.00;;;;5093606;28;20292;-53
2022/10/31 08:02:30;;;;;;;0.80;0.80;;;10.40;88.80;9.90;96372.00;;;;5093694;28;20194;-53
2022/10/31 08:04:59;;;;;;;0.63;0.63;;;10.50;88.90;10.10;96364.00;;;;5093504;28;20218;-57
2022/10/31 08:07:26;;;;;;;0.70;0.70;;;10.60;88.80;10.10;96361.00;;;;5075665;28;20214;-56
2022/10/31 08:09:52;;;;;;;0.80;0.80;;;10.70;89.00;10.20;96352.00;;;;5093472;28;20194;-56
2022/10/31 08:12:19;;;;;;;9.93;1.97;;;10.80;89.60;10.30;96362.00;;;;5092428;28;20211;-55
2022/10/31 08:14:46;;;;;;;1.03;1.03;;;10.90;88.60;10.50;96357.00;;;;5075482;28;20677;-56
2022/10/31 08:17:13;;;;;;;1.17;1.10;;;11.10;88.70;10.50;96363.00;;;;5093386;28;20278;-59
2022/10/31 08:19:39;;;;;;;0.50;0.50;;;11.10;88.40;10.60;96355.00;;;;5093167;28;20230;-55
2022/10/31 08:22:08;;;;;;;1.40;1.20;;;11.20;87.80;10.70;96360.00;;;;5093467;28;20210;-57
2022/10/31 08:24:35;;;;;;;0.80;0.80;;;11.20;88.20;10.80;96358.00;;;;5093251;28;20301;-55
2022/10/31 08:27:04;;;;;;;2.10;1.83;;;11.40;88.40;10.90;96333.00;;;;5092204;28;20289;-57
2022/10/31 08:29:30;;;;;;;1.43;1.40;;;11.50;88.10;11.00;96358.00;;;;5093552;28;20226;-57
2022/10/31 08:31:58;;;;;;;1.43;1.33;;;11.60;88.40;11.10;96353.00;;;;5093618;28;20186;-56
2022/10/31 08:34:25;;;;;;;1.10;1.00;;;11.70;87.40;11.20;96339.00;;;;5075599;28;20223;-58
2022/10/31 08:36:52;;;;;;;0.90;0.90;;;11.80;87.50;11.50;96341.00;;;;5093238;28;20244;-58
2022/10/31 08:39:19;;;;;;;2.67;1.93;;;12.00;87.20;11.50;96338.00;;;;5093166;28;20287;-58
2022/10/31 08:41:46;;;;;;;0.70;0.70;;;12.10;87.00;11.80;96341.00;;;;5093141;28;20236;-60
2022/10/31 08:44:12;;;;;;;3.03;1.80;;;12.30;87.90;11.60;96344.00;;;;5075153;28;20317;-59
2022/10/31 08:46:39;;;;;;;1.63;1.20;;;12.30;86.10;11.80;96337.00;;;;5093157;28;20199;-63
2022/10/31 08:49:05;;;;;;;1.33;1.27;;;12.40;88.10;11.80;96337.00;;;;5093138;28;20226;-54
2022/10/31 08:51:32;;;;;;;1.20;1.10;;;12.40;87.50;11.80;96337.00;;;;5093337;28;20175;-56
2022/10/31 08:54:00;;;;;;;1.30;1.30;;;12.40;87.30;11.80;96330.00;;;;5093082;28;20222;-57
2022/10/31 08:56:28;;;;;;;1.10;1.10;;;12.40;86.60;11.80;96328.00;;;;5093191;28;20199;-55
2022/10/31 08:58:54;;;;;;;0.60;0.60;;;12.40;86.90;12.00;96330.00;;;;5092850;28;20831;-56
2022/10/31 09:01:21;;;;;;;1.60;1.00;;;12.50;86.70;12.20;96332.00;;;;5093091;28;20644;-54
2022/10/31 09:03:47;;;;;;;0.50;0.50;;;12.60;86.70;12.40;96322.00;;;;5074918;28;20642;-55
2022/10/31 09:06:14;;;;;;;6.83;1.37;;;12.80;87.30;12.50;96330.00;;;;5096576;28;20198;-54
2022/10/31 09:08:43;;;;;;;1.57;1.47;;;12.90;87.40;12.70;96319.00;;;;5096539;28;20195;-54
2022/10/31 09:11:11;;;;;;;0.60;0.60;;;13.20;87.40;12.90;96318.00;;;;5096284;28;20203;-53
2022/10/31 09:13:38;;;;;;;0.90;0.90;;;13.30;87.80;12.90;96328.00;;;;5096204;28;20199;-56
2022/10/31 09:16:07;;;;;;;1.30;1.30;;;13.30;86.80;12.90;96321.00;;;;5096168;28;20256;-55
2022/10/31 09:18:34;;;;;;;1.13;1.13;;;13.30;87.00;12.80;96317.00;;;;5096086;28;20289;-56
2022/10/31 09:21:01;;;;;;;1.00;1.00;;;13.30;86.00;12.80;96315.00;;;;5096013;28;20226;-62
2022/10/31 09:23:30;;;;;;;0.70;0.70;;;13.40;86.80;12.90;96317.00;;;;5096033;28;20250;-54
2022/10/31 09:26:01;;;;;;;1.03;1.03;;;13.50;87.40;13.00;96314.00;;;;5078101;28;20222;-55
2022/10/31 09:28:28;;;;;;;2.13;1.63;;;13.50;86.70;13.10;96308.00;;;;5096079;28;20240;-56
2022/10/31 09:30:55;;;;;;;0.87;0.87;;;;;13.20;96310.00;;;;5095941;28;20222;-55
2022/10/31 09:33:22;;;;;;;1.37;1.37;;;;;13.30;96311.00;;;;5096213;28;20195;-55
2022/10/31 09:35:49;;;;;;;1.17;1.17;;;;;13.30;96318.00;;;;5095987;28;20222;-56
2022/10/31 09:38:18;;;;;;;1.10;1.10;;;;;13.50;96314.00;;;;5095929;28;20199;-56
2022/10/31 09:40:48;;;;;;;1.20;1.20;;;;;13.50;96311.00;;;;5078062;28;20604;-54
2022/10/31 09:43:22;;;;;;;0.80;0.80;;;;;13.50;96311.00;;;;5095702;28;20247;-55
2022/10/31 09:45:59;;;;;;;1.03;1.03;;;;;13.80;96299.00;;;;5095444;28;20719;-54
2022/10/31 09:48:41;;;;;;;1.40;1.37;;;;;14.00;96304.00;;;;5095641;28;20202;-55
2022/10/31 09:51:13;;;;;;;0.60;0.60;;;14.40;86.20;14.10;96298.00;;;;5095708;28;20214;-55
2022/10/31 09:53:48;;;;;;;3.33;1.17;;;14.50;86.20;14.20;96301.00;;;;5095615;28;20194;-54
2022/10/31 09:56:21;;;;;;;1.57;1.00;;;14.60;86.70;14.40;96296.00;;;;5095556;28;20241;-56
2022/10/31 09:58:53;;;;;;;1.10;1.07;;;14.70;87.20;14.60;96299.00;;;;5095550;28;20222;-55
2022/10/31 10:01:42;;;;;;;1.27;1.27;;;;;14.80;96289.00;;;;5094520;28;20218;-55
2022/10/31 10:04:30;;;;;;;1.00;1.00;;;15.20;91.10;15.10;96294.00;;;;5077740;28;20231;-54
2022/10/31 10:07:03;;;;;;;0.80;0.80;;;15.50;86.30;15.10;96281.00;;;;5094676;28;20384;-55
2022/10/31 10:09:31;;;;;;;1.47;1.37;;;15.50;84.50;15.10;96290.00;;;;5077754;28;20205;-54
2022/10/31 10:12:14;;;;;;;0.87;0.87;;;15.50;86.00;15.00;96278.00;;;;5077481;28;20732;-53
2022/10/31 10:15:02;;;;;;;2.00;1.87;;;15.50;84.60;15.30;96283.00;;;;5094254;28;20210;-54
2022/10/31 10:17:43;;;;;;;1.00;1.00;;;15.60;84.40;15.40;96282.00;;;;5094310;28;20214;-52
2022/10/31 10:20:26;;;;;;;1.53;1.43;;;15.80;83.40;15.40;96276.00;;;;5095087;28;20335;-52
2022/10/31 10:23:15;;;;;;;0.80;0.80;;;15.90;82.70;15.60;96272.00;;;;5095114;28;20275;-53
2022/10/31 10:25:47;;;;;;;1.87;1.13;;;15.90;82.40;15.60;96282.00;;;;5094093;28;20234;-52
2022/10/31 10:28:23;;;;;;;0.70;0.70;;;16.10;82.40;15.80;96275.00;;;;5094732;28;20198;-54
2022/10/31 10:30:58;;;;;;;1.70;1.27;;;16.20;82.20;15.90;96273.00;;;;5094979;28;20316;-52
2022/10/31 10:33:33;;;;;;;1.37;1.27;;;16.30;81.60;16.00;96273.00;;;;5094958;28;20194;-57
2022/10/31 10:36:06;;;;;;;0.90;0.90;;;16.40;81.50;16.10;96268.00;;;;5094916;28;20232;-52
2022/10/31 10:38:41;;;;;;;1.13;1.13;;;16.50;80.70;16.30;96269.00;;;;5094881;28;20604;-52
2022/10/31 10:41:16;;;;;;;2.10;1.30;;;16.60;81.20;16.20;96263.00;;;;5094800;28;20339;-53
2022/10/31 10:43:45;;;;;;;1.50;1.20;;;16.70;80.00;16.40;96257.00;;;;5094834;28;20292;-52
2022/10/31 10:49:24;;;;;;;1.17;1.17;;;17.00;80.00;16.90;96252.00;;;;5094660;28;20679;-52
2022/10/31 10:51:59;;;;;;;1.43;1.33;;;17.20;79.30;17.00;96251.00;;;;5094617;28;20219;-52
2022/10/31 10:54:50;;;;;;;1.80;1.70;;;17.40;78.20;17.20;96245.00;;;;5094689;28;20194;-55
2022/10/31 10:57:43;;;;;;;0.80;0.73;;;17.50;77.20;17.20;96247.00;;;;5094572;28;20653;-54
2022/10/31 11:00:20;;;;;;;11.03;1.17;;;17.60;77.80;17.10;96241.00;;;;5094615;28;20358;-54
2022/10/31 11:02:47;;;;;;;1.20;1.13;;;17.60;78.00;17.00;96242.00;;;;5094525;28;20198;-54
2022/10/31 11:05:24;;;;;;;0.87;0.87;;;17.60;77.40;17.10;96243.00;;;;5094446;28;20276;-52
2022/10/31 11:07:54;;;;;;;1.90;1.17;;;;;16.80;96238.00;;;;5094517;28;20198;-53
2022/10/31 11:10:20;;;;;;;1.03;1.03;;;17.40;78.90;16.50;96231.00;;;;5094523;28;20243;-53
2022/10/31 11:13:06;;;;;;;1.30;1.20;;;17.40;78.70;17.00;96236.00;;;;5093598;28;20696;-52
2022/10/31 11:15:37;;;;;;;1.53;1.43;;;;;17.10;96227.00;;;;5094266;28;20289;-52
2022/10/31 11:18:04;;;;;;;1.40;1.30;;;17.60;78.70;17.30;96219.00;;;;5076646;28;20210;-52
2022/10/31 11:20:35;;;;;;;1.87;1.77;;;17.70;76.90;17.40;96230.00;;;;5094274;28;20198;-52